Time;durP1;ratioP1;P1;durP2;ratioP2;P2;SDS_P1;SDS_P2;PMS_P1;PMS_P2;Temp;Humidity;BMP_temperature;BMP_pressure;BME280_temperature;BME280_humidity;BME280_pressure;Samples;Min_cycle;Max_cycle;Signal;HPM_P1;HPM_P2
2024/01/18 00:01:32;;;;;;;36.80;19.63;;;;;;;5.08;81.04;99542.44;5068152;28;20052;-64
2024/01/18 00:03:59;;;;;;;32.38;18.35;;;;;;;5.05;80.92;99534.00;5061111;28;20044;-63
2024/01/18 00:06:25;;;;;;;33.85;17.65;;;;;;;5.15;80.75;99532.25;5059262;28;20074;-63
2024/01/18 00:08:50;;;;;;;35.97;21.27;;;;;;;5.14;80.95;99534.03;5066316;28;20049;-63
2024/01/18 00:11:16;;;;;;;31.02;18.17;;;;;;;5.25;80.70;99538.41;5059112;28;20041;-63
2024/01/18 00:13:42;;;;;;;33.50;19.27;;;;;;;5.29;80.03;99531.91;5062075;28;20041;-65
2024/01/18 00:16:08;;;;;;;38.92;19.13;;;;;;;5.28;79.91;99538.13;5059862;28;20041;-64
2024/01/18 00:18:34;;;;;;;28.27;17.67;;;;;;;5.29;80.54;99533.72;5061248;28;20064;-63
2024/01/18 00:20:59;;;;;;;29.00;17.85;;;;;;;5.30;80.43;99545.88;5059519;28;20056;-63
2024/01/18 00:23:25;;;;;;;32.00;16.90;;;;;;;5.36;80.65;99534.84;5061064;28;20048;-63
2024/01/18 00:25:51;;;;;;;29.90;16.92;;;;;;;5.42;80.70;99529.88;5071555;28;20036;-63
2024/01/18 00:28:16;;;;;;;30.25;17.90;;;;;;;5.43;80.09;99522.84;5070538;28;20033;-64
2024/01/18 00:30:41;;;;;;;30.13;17.75;;;;;;;5.41;80.31;99532.63;5058937;28;20048;-65
2024/01/18 00:33:07;;;;;;;29.55;17.98;;;;;;;5.44;80.12;99542.88;5060430;28;20040;-63
2024/01/18 00:35:32;;;;;;;29.80;16.80;;;;;;;5.49;80.09;99535.41;5074532;28;20369;-63
2024/01/18 00:37:58;;;;;;;25.77;15.88;;;;;;;5.53;80.46;99523.69;5076795;28;20064;-63
2024/01/18 00:40:23;;;;;;;29.52;15.98;;;;;;;5.65;80.57;99522.59;5060223;28;20033;-64
2024/01/18 00:42:48;;;;;;;29.88;15.68;;;;;;;5.81;79.09;99523.84;5059044;28;20025;-64
2024/01/18 00:45:14;;;;;;;27.60;15.40;;;;;;;5.85;79.26;99518.19;5066402;28;20047;-65
2024/01/18 00:47:39;;;;;;;22.77;13.88;;;;;;;5.93;78.99;99509.66;5059544;28;20068;-63
2024/01/18 00:50:06;;;;;;;28.00;15.93;;;;;;;5.97;78.81;99503.16;5060809;28;20223;-63
2024/01/18 00:52:32;;;;;;;26.00;15.85;;;;;;;5.76;78.52;99495.38;5059265;28;20422;-63
2024/01/18 00:54:57;;;;;;;28.63;15.38;;;;;;;5.81;79.08;99503.66;5060055;28;20067;-64
2024/01/18 00:57:23;;;;;;;27.35;15.13;;;;;;;5.90;78.77;99508.13;5059324;28;20092;-64
2024/01/18 00:59:48;;;;;;;27.35;16.75;;;;;;;5.85;79.53;99494.53;5059899;28;20036;-63
2024/01/18 01:02:14;;;;;;;28.63;15.90;;;;;;;5.74;79.42;99492.06;5058556;28;20056;-63
2024/01/18 01:04:39;;;;;;;28.25;15.38;;;;;;;5.74;79.59;99490.25;5060192;28;20360;-63
2024/01/18 01:07:05;;;;;;;25.55;14.05;;;;;;;5.72;80.28;99488.72;5058627;28;20029;-63
2024/01/18 01:09:30;;;;;;;19.23;14.40;;;;;;;5.73;80.10;99487.75;5063064;28;20028;-64
2024/01/18 01:11:56;;;;;;;27.35;15.10;;;;;;;5.82;79.97;99486.94;5078871;28;20044;-65
2024/01/18 01:14:21;;;;;;;27.15;15.18;;;;;;;5.88;80.26;99475.88;5076669;28;20042;-63
2024/01/18 01:16:47;;;;;;;22.05;14.70;;;;;;;6.01;80.39;99467.75;5060758;28;20041;-63
2024/01/18 01:19:12;;;;;;;25.55;15.02;;;;;;;6.02;80.09;99459.72;5058890;28;20231;-63
2024/01/18 01:21:38;;;;;;;25.38;14.90;;;;;;;5.94;79.66;99464.84;5059564;28;20329;-64
2024/01/18 01:24:03;;;;;;;30.02;15.40;;;;;;;6.00;79.69;99456.41;5058880;28;20032;-65
2024/01/18 01:26:29;;;;;;;23.27;14.73;;;;;;;6.05;80.29;99453.34;5059971;28;20041;-65
2024/01/18 01:28:54;;;;;;;31.52;17.95;;;;;;;6.17;80.43;99457.47;5058929;28;20033;-63
2024/01/18 01:31:20;;;;;;;31.52;18.05;;;;;;;6.28;80.19;99456.53;5060426;28;20029;-63
2024/01/18 01:33:47;;;;;;;31.60;19.25;;;;;;;6.33;78.98;99454.28;5058157;28;20032;-64
2024/01/18 01:36:13;;;;;;;29.45;18.48;;;;;;;6.33;79.40;99459.56;5064812;28;20036;-65
2024/01/18 01:38:38;;;;;;;26.83;18.20;;;;;;;6.37;79.52;99450.41;5078234;28;20046;-64
2024/01/18 01:41:05;;;;;;;27.17;17.25;;;;;;;6.44;79.84;99448.88;5071382;28;20327;-64
2024/01/18 01:43:31;;;;;;;27.48;18.52;;;;;;;6.49;80.34;99445.81;5063993;28;20040;-63
2024/01/18 01:45:57;;;;;;;27.50;17.50;;;;;;;6.41;79.28;99451.78;5076069;28;20264;-63
2024/01/18 01:48:23;;;;;;;26.42;15.50;;;;;;;6.37;79.58;99445.97;5077865;28;20048;-63
2024/01/18 01:50:48;;;;;;;25.20;15.32;;;;;;;6.32;80.73;99450.84;5076439;28;20041;-64
2024/01/18 01:53:16;;;;;;;25.77;15.40;;;;;;;6.11;82.21;99447.53;5059774;28;20099;-64
2024/01/18 01:55:43;;;;;;;28.88;15.40;;;;;;;6.00;84.12;99450.31;5063177;28;20279;-63
2024/01/18 01:58:13;;;;;;;21.73;13.35;;;;;;;5.92;86.13;99445.75;5059409;28;20059;-64
2024/01/18 02:00:39;;;;;;;19.70;12.57;;;;;;;6.09;85.11;99433.69;5057802;28;20341;-64
2024/01/18 02:03:04;;;;;;;26.13;14.93;;;;;;;6.21;85.35;99432.56;5059055;28;20045;-64
2024/01/18 02:05:30;;;;;;;23.25;15.98;;;;;;;6.20;86.02;99430.06;5059565;28;20326;-64
2024/01/18 02:07:55;;;;;;;22.13;15.40;;;;;;;6.16;85.80;99419.00;5074254;28;20040;-63
2024/01/18 02:10:22;;;;;;;25.33;14.10;;;;;;;6.10;86.56;99406.44;5077165;28;20082;-63
2024/01/18 02:12:50;;;;;;;21.65;12.48;;;;;;;6.15;86.57;99398.97;5067200;28;20116;-63
2024/01/18 02:15:15;;;;;;;21.60;11.90;;;;;;;6.19;86.06;99404.75;5062862;28;20105;-63
2024/01/18 02:17:41;;;;;;;17.85;11.50;;;;;;;6.14;86.69;99401.72;5070248;28;20282;-65
2024/01/18 02:20:07;;;;;;;18.85;12.02;;;;;;;6.12;85.86;99393.16;5057955;28;20223;-64
2024/01/18 02:22:40;;;;;;;19.50;12.13;;;;;;;6.12;86.57;99398.41;5058978;28;20036;-63
2024/01/18 02:25:18;;;;;;;21.05;11.73;;;;;;;6.15;87.05;99401.59;5058113;28;20037;-63
2024/01/18 02:27:43;;;;;;;16.67;11.00;;;;;;;5.87;88.24;99397.19;5062295;28;20322;-64
2024/01/18 02:30:09;;;;;;;18.00;10.85;;;;;;;5.96;87.97;99394.56;5056979;28;20047;-64
2024/01/18 02:32:34;;;;;;;17.80;10.85;;;;;;;5.99;88.02;99393.47;5057898;28;20032;-65
2024/01/18 02:35:00;;;;;;;20.58;11.70;;;;;;;5.94;88.85;99395.69;5058756;28;20053;-63
2024/01/18 02:37:25;;;;;;;20.85;11.32;;;;;;;5.78;89.72;99393.59;5057482;28;20029;-63
2024/01/18 02:39:52;;;;;;;19.63;11.43;;;;;;;5.75;89.13;99391.25;5061017;28;20138;-63
2024/01/18 02:42:18;;;;;;;18.60;12.15;;;;;;;5.77;89.25;99394.56;5076723;28;20036;-64
2024/01/18 02:44:45;;;;;;;17.23;11.88;;;;;;;5.88;89.58;99397.03;5065814;28;20104;-65
2024/01/18 02:47:12;;;;;;;17.58;11.70;;;;;;;5.77;89.55;99386.69;5066389;28;20048;-63
2024/01/18 02:49:37;;;;;;;19.95;11.48;;;;;;;5.77;89.47;99390.13;5058771;28;20045;-63
2024/01/18 02:52:04;;;;;;;17.95;11.38;;;;;;;5.84;89.43;99387.78;5057453;28;20061;-64
2024/01/18 02:54:29;;;;;;;18.77;11.85;;;;;;;5.95;89.33;99392.91;5056509;28;20037;-64
2024/01/18 02:56:55;;;;;;;17.33;11.20;;;;;;;5.98;88.58;99390.00;5057524;28;20066;-64
2024/01/18 02:59:20;;;;;;;17.23;11.15;;;;;;;6.02;88.25;99377.41;5056443;28;20079;-64
2024/01/18 03:01:45;;;;;;;19.08;12.88;;;;;;;6.06;88.38;99384.03;5057241;28;20041;-63
2024/01/18 03:04:11;;;;;;;20.38;12.05;;;;;;;6.11;87.60;99384.44;5060862;28;20063;-63
2024/01/18 03:06:36;;;;;;;18.95;11.55;;;;;;;6.16;87.50;99381.38;5076773;28;20038;-63
2024/01/18 03:09:02;;;;;;;18.15;11.50;;;;;;;6.24;87.79;99384.13;5066056;28;20084;-63
2024/01/18 03:11:27;;;;;;;16.38;11.30;;;;;;;6.25;86.79;99378.75;5059640;28;20037;-63
2024/01/18 03:13:53;;;;;;;19.95;12.65;;;;;;;6.25;86.69;99378.75;5060913;28;20048;-64
2024/01/18 03:16:18;;;;;;;23.58;13.23;;;;;;;6.33;87.56;99370.97;5060963;28;20024;-63
2024/01/18 03:18:46;;;;;;;14.23;10.18;;;;;;;6.37;86.46;99368.88;5066079;28;20039;-63
2024/01/18 03:21:11;;;;;;;16.50;10.82;;;;;;;6.41;85.25;99367.63;5080755;28;20394;-63
2024/01/18 03:23:37;;;;;;;16.13;10.73;;;;;;;6.46;84.75;99362.75;5078936;28;20040;-63
2024/01/18 03:26:02;;;;;;;19.92;11.90;;;;;;;6.56;84.65;99360.09;5060133;28;20338;-65
2024/01/18 03:28:28;;;;;;;17.92;11.02;;;;;;;6.53;83.96;99355.94;5061493;28;20362;-64
2024/01/18 03:30:53;;;;;;;17.58;11.13;;;;;;;6.48;84.12;99352.91;5078235;28;20039;-63
2024/01/18 03:33:19;;;;;;;19.42;10.98;;;;;;;6.49;84.73;99356.38;5080962;28;20432;-63
2024/01/18 03:35:44;;;;;;;18.73;11.75;;;;;;;6.47;85.62;99353.06;5079568;28;20376;-63
2024/01/18 03:38:10;;;;;;;18.25;11.32;;;;;;;6.33;85.05;99342.06;5081496;28;20323;-64
2024/01/18 03:40:37;;;;;;;22.67;13.05;;;;;;;6.33;85.64;99343.84;5067434;28;20336;-64
2024/01/18 03:43:03;;;;;;;17.55;10.95;;;;;;;6.34;85.92;99348.13;5060833;28;20051;-65
2024/01/18 03:45:28;;;;;;;17.75;10.98;;;;;;;6.34;85.65;99348.13;5068935;28;20052;-63
2024/01/18 03:47:53;;;;;;;17.77;11.60;;;;;;;6.33;85.66;99343.84;5060554;28;20043;-63
2024/01/18 03:50:19;;;;;;;21.95;11.32;;;;;;;6.31;88.29;99346.63;5073912;28;20032;-64
2024/01/18 03:52:45;;;;;;;22.20;15.02;;;;;;;6.00;89.94;99342.56;5079416;28;20029;-64
2024/01/18 03:55:10;;;;;;;24.33;15.20;;;;;;;6.05;90.40;99348.22;5078326;28;20049;-63
2024/01/18 03:57:36;;;;;;;24.23;14.57;;;;;;;6.11;89.59;99352.91;5079155;28;20043;-64
2024/01/18 04:00:02;;;;;;;22.27;14.65;;;;;;;6.14;89.42;99336.84;5078414;28;20356;-64
2024/01/18 04:02:27;;;;;;;24.60;14.73;;;;;;;6.18;88.86;99343.47;5078125;28;20380;-64
2024/01/18 04:04:53;;;;;;;21.15;14.00;;;;;;;6.23;88.84;99358.81;5079198;28;20049;-63
2024/01/18 04:07:18;;;;;;;22.88;13.85;;;;;;;6.30;89.66;99354.66;5077643;28;20044;-63
2024/01/18 04:09:44;;;;;;;21.48;13.65;;;;;;;6.36;89.06;99354.91;5079596;28;20074;-64
2024/01/18 04:12:10;;;;;;;22.60;14.85;;;;;;;6.37;88.41;99353.94;5078347;28;20037;-64
2024/01/18 04:14:35;;;;;;;23.15;13.88;;;;;;;6.42;88.43;99342.97;5079060;28;20276;-63
2024/01/18 04:17:01;;;;;;;21.45;13.75;;;;;;;6.48;87.58;99345.03;5075455;28;20040;-63
2024/01/18 04:19:26;;;;;;;21.27;14.23;;;;;;;6.45;87.62;99342.69;5078665;28;20031;-63
2024/01/18 04:21:52;;;;;;;25.95;15.15;;;;;;;6.52;87.91;99350.81;5078089;28;20090;-63
2024/01/18 04:24:18;;;;;;;24.85;13.75;;;;;;;6.57;88.03;99346.78;5078851;28;20134;-64
2024/01/18 04:26:43;;;;;;;25.13;14.93;;;;;;;6.60;87.15;99348.28;5078896;28;20364;-64
2024/01/18 04:29:09;;;;;;;24.58;16.42;;;;;;;6.56;87.56;99352.19;5078374;28;20032;-62
2024/01/18 04:31:34;;;;;;;32.42;20.00;;;;;;;6.57;88.48;99354.69;5079193;28;20032;-63
2024/01/18 04:34:00;;;;;;;35.55;22.27;;;;;;;6.55;89.26;99366.31;5078466;28;20036;-63
2024/01/18 04:36:25;;;;;;;53.97;29.42;;;;;;;6.53;89.03;99376.16;5078213;28;20249;-64
2024/01/18 04:38:51;;;;;;;42.42;24.38;;;;;;;6.48;89.20;99366.06;5078783;28;20040;-65
2024/01/18 04:41:17;;;;;;;36.30;21.63;;;;;;;6.46;89.15;99372.44;5078704;28;20208;-63
2024/01/18 04:43:43;;;;;;;38.40;23.48;;;;;;;6.38;89.63;99368.75;5077288;28;20039;-64
2024/01/18 04:46:09;;;;;;;38.85;23.73;;;;;;;6.38;89.49;99352.13;5079035;28;20049;-63
2024/01/18 04:48:36;;;;;;;43.67;25.85;;;;;;;6.44;89.36;99358.63;5077282;28;20040;-64
2024/01/18 04:51:03;;;;;;;42.85;24.40;;;;;;;6.48;88.55;99346.84;5078807;28;20048;-63
2024/01/18 04:53:29;;;;;;;43.13;26.60;;;;;;;6.47;88.45;99345.19;5077897;28;20037;-65
2024/01/18 04:55:55;;;;;;;47.40;27.35;;;;;;;6.46;86.62;99336.47;5078805;28;20158;-64
2024/01/18 04:58:21;;;;;;;38.63;23.45;;;;;;;6.30;87.55;99334.44;5068431;28;20071;-64
2024/01/18 05:00:46;;;;;;;38.22;23.90;;;;;;;6.16;87.95;99337.53;5058251;28;20116;-63
2024/01/18 05:03:12;;;;;;;43.22;24.45;;;;;;;6.27;88.22;99332.13;5058316;28;20115;-63
2024/01/18 05:05:37;;;;;;;43.53;25.65;;;;;;;6.30;87.83;99333.63;5076129;28;20082;-64
2024/01/18 05:08:03;;;;;;;41.33;24.05;;;;;;;6.33;87.72;99336.78;5077114;28;20354;-64
2024/01/18 05:10:28;;;;;;;37.97;22.17;;;;;;;6.37;87.77;99335.53;5078913;28;20039;-63
2024/01/18 05:12:54;;;;;;;39.72;23.83;;;;;;;6.44;87.80;99330.53;5077394;28;20043;-64
2024/01/18 05:15:20;;;;;;;35.58;23.42;;;;;;;6.47;87.29;99332.84;5078435;28;20036;-63
2024/01/18 05:17:48;;;;;;;38.97;23.23;;;;;;;6.52;86.79;99335.88;5062118;28;20052;-63
2024/01/18 05:20:15;;;;;;;36.75;23.33;;;;;;;6.54;85.96;99319.94;5058795;28;20418;-64
2024/01/18 05:22:40;;;;;;;40.20;25.25;;;;;;;6.61;85.46;99324.47;5057900;28;20345;-64
2024/01/18 05:25:06;;;;;;;41.92;24.00;;;;;;;6.60;85.77;99317.56;5058484;28;20041;-63
2024/01/18 05:27:32;;;;;;;42.55;26.17;;;;;;;6.63;85.73;99317.25;5069645;28;20036;-64
2024/01/18 05:29:57;;;;;;;48.13;26.38;;;;;;;6.65;86.27;99322.38;5077366;28;20036;-64
2024/01/18 05:32:23;;;;;;;46.05;28.33;;;;;;;6.66;85.02;99327.50;5077131;28;20032;-65
2024/01/18 05:34:50;;;;;;;46.22;27.45;;;;;;;6.69;85.32;99316.66;5077981;28;20041;-65
2024/01/18 05:37:16;;;;;;;40.10;25.65;;;;;;;6.73;84.84;99319.84;5073896;28;20067;-64
2024/01/18 05:39:42;;;;;;;41.33;24.67;;;;;;;6.76;84.32;99318.72;5057527;28;20051;-63
2024/01/18 05:42:07;;;;;;;44.63;27.20;;;;;;;6.71;84.37;99322.63;5058038;28;20100;-64
2024/01/18 05:44:33;;;;;;;43.08;27.30;;;;;;;6.75;84.69;99322.31;5071644;28;20103;-64
2024/01/18 05:46:59;;;;;;;43.65;26.83;;;;;;;6.73;85.61;99322.47;5078671;28;20497;-64
2024/01/18 05:49:24;;;;;;;39.05;26.05;;;;;;;6.77;85.16;99315.94;5059011;28;20358;-63
2024/01/18 05:51:50;;;;;;;47.42;26.60;;;;;;;6.77;85.30;99323.81;5059306;28;20301;-63
2024/01/18 05:54:15;;;;;;;40.40;26.00;;;;;;;6.67;85.17;99323.06;5057096;28;20136;-63
2024/01/18 05:56:41;;;;;;;45.83;27.80;;;;;;;6.61;85.48;99342.88;5058414;28;20040;-64
2024/01/18 05:59:07;;;;;;;47.75;29.98;;;;;;;6.62;85.97;99339.28;5070625;28;20085;-64
2024/01/18 06:01:32;;;;;;;46.15;28.25;;;;;;;6.59;86.08;99333.50;5078211;28;20047;-64
2024/01/18 06:03:58;;;;;;;48.45;29.60;;;;;;;6.64;86.09;99332.06;5068160;28;20068;-63
2024/01/18 06:06:23;;;;;;;48.88;29.90;;;;;;;6.65;86.37;99335.53;5057411;28;20032;-63
2024/01/18 06:08:49;;;;;;;54.20;30.02;;;;;;;6.70;85.87;99342.00;5064734;28;20033;-63
2024/01/18 06:11:15;;;;;;;50.10;29.67;;;;;;;6.73;86.11;99338.25;5077922;28;20032;-64
2024/01/18 06:13:40;;;;;;;45.25;29.65;;;;;;;6.72;85.95;99339.22;5074066;28;20048;-64
2024/01/18 06:16:11;;;;;;;57.58;32.25;;;;;;;6.72;86.47;99342.69;5057664;28;20040;-63
2024/01/18 06:18:38;;;;;;;56.58;35.67;;;;;;;6.67;87.31;99344.94;5059347;28;20041;-64
2024/01/18 06:21:12;;;;;;;61.80;36.15;;;;;;;6.65;86.78;99340.78;5056691;28;20041;-63
2024/01/18 06:23:40;;;;;;;58.65;35.85;;;;;;;6.57;87.83;99343.31;5057224;28;20056;-63
2024/01/18 06:26:10;;;;;;;54.95;32.10;;;;;;;6.48;88.28;99345.03;5057042;28;20044;-64
2024/01/18 06:28:37;;;;;;;49.05;29.75;;;;;;;6.55;88.12;99338.22;5057587;28;20044;-64
2024/01/18 06:31:02;;;;;;;53.60;31.77;;;;;;;6.60;87.83;99328.06;5069410;28;20184;-64
2024/01/18 06:33:28;;;;;;;52.83;31.27;;;;;;;6.67;87.28;99338.84;5077572;28;20043;-64
2024/01/18 06:35:53;;;;;;;54.30;32.33;;;;;;;6.66;88.27;99327.50;5068368;28;20040;-63
2024/01/18 06:38:21;;;;;;;49.70;31.15;;;;;;;6.68;87.49;99340.50;5057345;28;20244;-63
2024/01/18 06:40:47;;;;;;;47.60;30.80;;;;;;;6.66;87.93;99345.91;5064231;28;20036;-64
2024/01/18 06:43:16;;;;;;;54.05;29.38;;;;;;;6.53;88.60;99347.22;5077471;28;20230;-64
2024/01/18 06:45:41;;;;;;;48.78;29.52;;;;;;;6.44;89.35;99348.09;5073027;28;20044;-63
2024/01/18 06:48:07;;;;;;;51.15;29.88;;;;;;;6.36;90.54;99340.94;5056815;28;20037;-63
2024/01/18 06:50:35;;;;;;;59.08;32.67;;;;;;;6.44;90.33;99337.56;5057724;28;20049;-64
2024/01/18 06:53:03;;;;;;;52.97;30.83;;;;;;;6.37;90.40;99329.44;5057338;28;20033;-63
2024/01/18 06:55:31;;;;;;;54.35;30.13;;;;;;;6.41;90.06;99317.66;5058324;28;20268;-64
2024/01/18 06:58:02;;;;;;;53.00;29.95;;;;;;;6.51;88.79;99328.97;5056240;28;20315;-65
2024/01/18 07:00:27;;;;;;;48.33;27.77;;;;;;;6.56;88.43;99339.88;5058237;28;20036;-63
2024/01/18 07:02:53;;;;;;;42.35;27.65;;;;;;;6.54;89.48;99335.72;5056168;28;20446;-63
2024/01/18 07:05:19;;;;;;;50.08;29.13;;;;;;;6.62;89.46;99339.28;5057577;28;20063;-63
2024/01/18 07:07:45;;;;;;;41.17;24.85;;;;;;;6.67;89.36;99325.69;5071240;28;20342;-63
2024/01/18 07:10:10;;;;;;;40.53;25.73;;;;;;;6.63;89.02;99325.16;5077134;28;20032;-64
2024/01/18 07:12:36;;;;;;;39.20;24.85;;;;;;;6.69;89.98;99329.81;5076118;28;20107;-64
2024/01/18 07:15:03;;;;;;;42.13;24.70;;;;;;;6.62;89.87;99323.50;5076741;28;20090;-64
2024/01/18 07:17:29;;;;;;;43.40;26.10;;;;;;;6.69;89.91;99329.00;5068994;28;20044;-63
2024/01/18 07:19:58;;;;;;;30.98;22.23;;;;;;;6.66;89.54;99324.88;5057258;28;20029;-63
2024/01/18 07:22:26;;;;;;;38.83;22.13;;;;;;;6.67;89.71;99321.25;5063420;28;20098;-64
2024/01/18 07:24:52;;;;;;;32.58;20.17;;;;;;;6.66;90.25;99330.13;5076958;28;20074;-64
2024/01/18 07:27:17;;;;;;;29.65;19.65;;;;;;;6.54;89.80;99318.16;5073103;28;20036;-64
2024/01/18 07:29:43;;;;;;;27.25;16.38;;;;;;;6.61;90.65;99329.72;5056618;28;20322;-64
2024/01/18 07:32:09;;;;;;;23.55;16.15;;;;;;;6.59;90.30;99336.94;5057059;28;20067;-64
2024/01/18 07:34:35;;;;;;;28.65;16.77;;;;;;;6.62;90.78;99326.13;5055786;28;20346;-63
2024/01/18 07:37:01;;;;;;;23.95;14.48;;;;;;;6.63;91.41;99327.78;5057349;28;20056;-64
2024/01/18 07:39:30;;;;;;;30.27;16.00;;;;;;;6.50;92.07;99326.47;5056117;28;20370;-64
2024/01/18 07:41:56;;;;;;;29.50;18.15;;;;;;;6.34;92.57;99314.78;5057269;28;20238;-64
2024/01/18 07:44:21;;;;;;;30.55;17.50;;;;;;;6.40;92.05;99314.19;5071888;28;20032;-63
2024/01/18 07:46:47;;;;;;;31.13;16.13;;;;;;;6.50;91.80;99323.84;5077644;28;20266;-63
2024/01/18 07:49:12;;;;;;;29.38;15.90;;;;;;;6.54;92.08;99305.00;5063816;28;20044;-63
2024/01/18 07:51:38;;;;;;;21.10;14.77;;;;;;;6.56;92.46;99321.47;5057217;28;20032;-64
2024/01/18 07:54:04;;;;;;;26.67;15.80;;;;;;;6.66;92.48;99306.44;5056727;28;20098;-64
2024/01/18 07:56:30;;;;;;;26.60;16.60;;;;;;;6.63;92.50;99313.81;5058328;28;20318;-64
2024/01/18 07:58:55;;;;;;;27.83;16.17;;;;;;;6.69;92.83;99316.66;5060242;28;20351;-63
2024/01/18 08:01:21;;;;;;;34.25;19.33;;;;;;;6.63;94.45;99325.16;5059816;28;20048;-63
2024/01/18 08:03:46;;;;;;;37.90;19.40;;;;;;;6.36;95.71;99315.47;5064576;28;20028;-63
2024/01/18 08:06:12;;;;;;;30.17;17.38;;;;;;;6.66;94.71;99313.50;5079975;28;20040;-64
2024/01/18 08:08:40;;;;;;;25.33;15.68;;;;;;;6.82;94.43;99310.22;5079444;28;20043;-65
2024/01/18 08:11:17;;;;;;;29.10;16.25;;;;;;;6.84;94.19;99306.47;5059218;28;20068;-64
2024/01/18 08:13:43;;;;;;;30.38;16.42;;;;;;;6.74;94.01;99295.19;5060454;28;20094;-64
2024/01/18 08:16:09;;;;;;;33.03;17.80;;;;;;;6.90;93.11;99297.97;5059165;28;20037;-63
2024/01/18 08:18:36;;;;;;;34.28;19.90;;;;;;;7.05;92.26;99282.47;5060644;28;20104;-64
2024/01/18 08:21:02;;;;;;;29.00;19.10;;;;;;;7.21;92.33;99280.00;5077356;28;20086;-63
2024/01/18 08:23:28;;;;;;;31.60;19.75;;;;;;;7.33;91.09;99267.44;5079898;28;20361;-65
2024/01/18 08:25:54;;;;;;;25.02;17.30;;;;;;;7.39;91.02;99263.38;5064091;28;20034;-65
2024/01/18 08:28:21;;;;;;;30.20;20.77;;;;;;;7.31;91.24;99264.13;5059636;28;20378;-62
2024/01/18 08:30:47;;;;;;;29.45;18.08;;;;;;;7.41;91.99;99256.16;5058544;28;20334;-63
2024/01/18 08:33:13;;;;;;;29.10;16.52;;;;;;;7.42;92.12;99257.78;5058868;28;20033;-64
2024/01/18 08:35:38;;;;;;;30.52;15.57;;;;;;;7.45;92.81;99242.50;5059366;28;20037;-64
2024/01/18 08:38:04;;;;;;;23.25;15.45;;;;;;;7.48;92.81;99231.66;5059861;28;20040;-64
2024/01/18 08:40:30;;;;;;;23.05;13.10;;;;;;;7.42;92.29;99228.81;5059865;28;20039;-64
2024/01/18 08:42:56;;;;;;;19.27;12.68;;;;;;;7.42;91.66;99232.28;5058959;28;20060;-63
2024/01/18 08:45:25;;;;;;;21.95;13.10;;;;;;;7.50;91.96;99234.16;5059364;28;20040;-63
2024/01/18 08:47:51;;;;;;;17.92;12.85;;;;;;;7.58;91.45;99228.94;5058290;28;20052;-63
2024/01/18 08:50:16;;;;;;;21.80;12.65;;;;;;;7.58;90.69;99232.38;5059897;28;20036;-64
2024/01/18 08:52:42;;;;;;;23.58;14.75;;;;;;;7.62;90.72;99212.66;5059462;28;20060;-65
2024/01/18 08:55:08;;;;;;;27.00;14.73;;;;;;;7.65;89.87;99182.53;5060167;28;20063;-63
2024/01/18 08:57:34;;;;;;;29.80;17.88;;;;;;;7.72;88.87;99177.47;5076764;28;20294;-63
2024/01/18 08:59:59;;;;;;;31.77;18.15;;;;;;;7.82;88.05;99173.72;5079824;28;20028;-63
2024/01/18 09:02:25;;;;;;;31.27;18.55;;;;;;;7.91;86.93;99177.22;5062773;28;20297;-64
2024/01/18 09:04:50;;;;;;;32.45;18.88;;;;;;;7.93;86.06;99152.34;5059569;28;20051;-64
2024/01/18 09:07:16;;;;;;;32.47;19.58;;;;;;;7.11;90.79;99131.81;5058147;28;20346;-63
2024/01/18 09:09:42;;;;;;;27.73;17.80;;;;;;;6.68;95.68;99111.59;5059200;28;20043;-63
2024/01/18 09:12:07;;;;;;;31.63;17.42;;;;;;;6.24;97.93;99100.19;5058903;28;20028;-63
2024/01/18 09:14:34;;;;;;;28.33;17.02;;;;;;;6.25;100.00;99105.31;5058529;28;20047;-64
2024/01/18 09:16:59;;;;;;;32.20;20.40;;;;;;;6.36;100.00;99113.00;5066250;28;20068;-64
2024/01/18 09:19:25;;;;;;;33.85;19.95;;;;;;;6.59;98.26;99112.53;5078509;28;20036;-63
2024/01/18 09:21:50;;;;;;;38.15;23.85;;;;;;;6.63;96.79;99124.41;5074837;28;20032;-63
2024/01/18 09:24:16;;;;;;;33.45;20.42;;;;;;;6.78;95.32;99114.97;5077546;28;20064;-64
2024/01/18 09:26:41;;;;;;;35.63;21.77;;;;;;;6.88;94.25;99112.25;5077745;28;20028;-64
2024/01/18 09:29:08;;;;;;;36.40;20.00;;;;;;;7.07;92.35;99117.31;5077074;28;20033;-64
2024/01/18 09:31:33;;;;;;;38.20;22.33;;;;;;;7.26;90.35;99121.53;5078939;28;20081;-63
2024/01/18 09:33:59;;;;;;;33.83;20.25;;;;;;;7.42;90.32;99119.03;5076084;28;20032;-63
2024/01/18 09:36:24;;;;;;;30.58;19.20;;;;;;;7.49;89.28;99120.03;5079378;28;20044;-63
2024/01/18 09:38:50;;;;;;;26.25;16.63;;;;;;;7.54;89.20;99107.22;5077426;28;20048;-63
2024/01/18 09:41:19;;;;;;;30.17;17.52;;;;;;;7.63;88.29;99089.63;5078460;28;20074;-65
2024/01/18 09:43:45;;;;;;;26.88;17.08;;;;;;;7.62;88.80;99080.91;5064099;28;20090;-65
2024/01/18 09:46:11;;;;;;;20.95;14.15;;;;;;;7.66;88.96;99087.50;5060268;28;20052;-64
2024/01/18 09:48:38;;;;;;;22.75;14.55;;;;;;;7.66;90.02;99094.59;5060774;28;20033;-63
2024/01/18 09:51:06;;;;;;;21.55;13.27;;;;;;;7.78;89.73;99088.03;5057683;28;20033;-63
2024/01/18 09:53:33;;;;;;;24.33;14.18;;;;;;;7.83;89.46;99084.94;5064630;28;20283;-63
2024/01/18 09:56:03;;;;;;;21.05;12.93;;;;;;;7.83;89.15;99077.03;5077350;28;20048;-65
2024/01/18 09:58:30;;;;;;;19.75;12.40;;;;;;;7.89;88.43;99082.47;5071840;28;20052;-65
2024/01/18 10:00:58;;;;;;;18.95;12.38;;;;;;;7.97;88.08;99079.03;5057574;28;20045;-64
2024/01/18 10:03:24;;;;;;;18.52;12.30;;;;;;;8.01;88.07;99081.19;5058602;28;20068;-63
2024/01/18 10:05:50;;;;;;;25.15;14.57;;;;;;;8.15;89.07;99078.91;5057758;28;20114;-64
2024/01/18 10:08:16;;;;;;;28.15;17.42;;;;;;;8.22;89.53;99058.78;5059115;28;20044;-64
2024/01/18 10:10:42;;;;;;;32.55;19.17;;;;;;;8.13;89.94;99060.59;5077528;28;20333;-64
2024/01/18 10:13:11;;;;;;;33.20;19.35;;;;;;;8.11;90.00;99062.56;5078442;28;20051;-64
2024/01/18 10:15:37;;;;;;;37.45;22.52;;;;;;;8.11;89.61;99067.84;5060884;28;20331;-64
2024/01/18 10:18:04;;;;;;;42.83;24.77;;;;;;;8.04;89.44;99058.94;5069643;28;20035;-63
2024/01/18 10:20:29;;;;;;;42.90;23.92;;;;;;;8.01;90.35;99060.09;5072506;28;20052;-63
2024/01/18 10:22:55;;;;;;;31.33;20.10;;;;;;;8.03;90.95;99057.28;5075885;28;20044;-64
2024/01/18 10:25:25;;;;;;;30.85;18.10;;;;;;;8.05;91.09;99052.69;5073838;28;20211;-63
2024/01/18 10:27:54;;;;;;;31.15;18.10;;;;;;;7.97;91.36;99056.13;5076244;28;20226;-63
2024/01/18 10:30:20;;;;;;;29.50;18.85;;;;;;;8.06;90.01;99066.69;5072346;28;20040;-64
2024/01/18 10:32:47;;;;;;;29.90;17.90;;;;;;;8.08;90.78;99056.81;5076085;28;20033;-64
2024/01/18 10:35:24;;;;;;;33.05;19.00;;;;;;;8.08;90.97;99040.97;5074106;28;20039;-63
2024/01/18 10:38:03;;;;;;;29.92;18.50;;;;;;;8.12;91.74;99045.75;5074716;28;20040;-64
2024/01/18 10:40:33;;;;;;;33.03;18.55;;;;;;;8.22;90.58;99048.25;5073399;28;20334;-64
2024/01/18 10:43:03;;;;;;;30.80;19.48;;;;;;;8.28;89.81;99040.50;5074085;28;20338;-65
2024/01/18 10:45:31;;;;;;;30.38;18.23;;;;;;;8.34;89.87;99027.72;5073002;28;20091;-65
2024/01/18 10:47:57;;;;;;;27.67;17.38;;;;;;;8.43;89.29;99024.91;5075861;28;20112;-64
2024/01/18 10:50:24;;;;;;;29.92;18.35;;;;;;;8.44;88.31;99013.34;5073198;28;20048;-63
2024/01/18 10:52:51;;;;;;;29.50;18.30;;;;;;;8.30;89.01;99013.97;5074494;28;20076;-63
2024/01/18 10:55:17;;;;;;;33.85;21.23;;;;;;;8.44;88.79;98994.88;5073896;28;20059;-64
2024/01/18 10:57:42;;;;;;;35.63;21.30;;;;;;;8.50;88.75;98977.56;5073891;28;20033;-65
2024/01/18 11:00:08;;;;;;;29.90;19.30;;;;;;;8.57;88.78;98999.66;5075580;28;20099;-64
2024/01/18 11:02:40;;;;;;;35.72;20.20;;;;;;;8.47;88.76;98996.38;5072752;28;20052;-63
2024/01/18 11:05:10;;;;;;;33.35;19.63;;;;;;;8.57;88.45;98976.72;5075344;28;20148;-63
2024/01/18 11:07:42;;;;;;;35.63;21.85;;;;;;;8.66;88.63;98963.50;5073088;28;20273;-64
2024/01/18 11:10:10;;;;;;;37.78;22.08;;;;;;;8.80;88.84;98958.38;5074928;28;20234;-65
2024/01/18 11:12:38;;;;;;;40.78;23.92;;;;;;;8.87;87.93;98961.97;5073115;28;21328;-64
2024/01/18 11:15:05;;;;;;;45.70;25.38;;;;;;;8.96;85.09;98963.59;5075007;28;20150;-64
2024/01/18 11:17:31;;;;;;;40.15;22.83;;;;;;;8.98;85.62;98975.78;5072927;28;20347;-63
2024/01/18 11:20:00;;;;;;;41.20;22.25;;;;;;;9.02;85.96;98971.81;5075023;28;20641;-64